Ana Sayfa
METAR-TAF:

METAR-TAF

Havaalanları :

Atina Elefterios Venizelos Uluslararası Havalimanı

Atina, Yunanistan

Enlem: 37-56N, Boylam: 023-56E, yükseklik: 94 m

Güncel hava durumu gözlemi

Rapor saat 10:50 UTC de 37 dakika önce yapıldı.
Rüzgar kuzey/kuzeydoğudan 25 kt ve 36 kt'a kadar ani rüzgarlar
Sıcaklık 15°C
Nem 51%
Basınç 1025 hPa
Görüş mesafesi 10 km veya daha fazla
3000 ft yükseklikte az bulutlu

METAR: LGAV 211050Z 02025G36KT 9999 FEW030 15/05 Q1025 NOSIG

Saat: 13:27 (11:27 UTC)

Tahmin

Rapor saat 05:00 UTC de 6 saat ve 27 dakika önce yapıldı.
Ayın 21'si saat 06 UTC'den ayın 22'si saat 06 UTC'ye kadar geçerli Tahmin
Rüzgar kuzeydan 25 kt ve 35 kt'a kadar ani rüzgarlar
Görüş mesafesi 10 km veya daha fazla
2000 ft yükseklikte az bulutlu
3000 ft yükseklikte parçalı bulutlu

TAF: LGAV 210500Z 2106/2206 01025G35KT 9999 FEW020 SCT030

4.000'den fazla havaalanı için hava durumu gözlemleri ve tahminleri (METAR ve TAF raporları).

Kullanılabilir istasyonlar harita üzerinde sarı ve kırmızı noktalarla gösterilir.

İstasyonun adını görmek için fareyi noktanın üzerinde gezdirin.

Sonrasında hava gözlem ve tahminlerini görmek için tıklayın.

Haritayı değiştirmek için: yaklaştırmak için siyah artı işaretli yeşil düğmeye ve uzaklaştırmak için de eksi işaretli düğmeye hızla tıklayın; bitişik haritalar için yeşil okları kullanın.


METAR-TAF: